Portada
METAR-TAF:

METAR-TAF

Aeropuertos :

Aeropuerto Internacional El Dorado

Bogotá, Colombia

latitud: 04-43N, longitud: 074-09W, altitud: 2547 m

Observación

El informe se hizo hace 16 minutos, a las 13:42 UTC
Viento 3 kt del norte
Temperatura 15°C
Humedad 72%
Presión 1029 hPa
Visibilidad 10 km o más
Escasas nubes a una altura de 2000 ft
Nubes dispersas a una altura de 20000 ft

METAR: SKBO 101342Z 01003KT 9999 FEW020 SCT200 15/10 A3040

Hora: 08:58 (13:58 UTC)

Pronóstico

El informe se hizo hace 2 horas y 58 minutos, a las 11:00 UTC
Pronóstico válido del 10 a las 12 UTC al 11 a las 12 UTC
Viento 2 kt con dirección variable
Visibilidad 10 km o más
Escasas nubes a una altura de 1500 ft
Evolucionando progresivamente
del 10 a las 15 UTC al 10 a las 17 UTC
Viento 10 kt del oeste-noroeste

TAF: SKBO 101100Z 1012/1112 VRB02KT 9999 FEW015 BECMG 1015/1017 29010KT TX21/1018Z TN07/1111Z

Observaciones y pronósticos meteorológicos de más de 4000 aeropuertos (mensajes METAR y TAF).

Los puntos amarillos y rojos representan las estaciones disponibles.

Ponga el ratón en el punto deseado para ver el nombre de la estación.

Haga clic para ver las observaciones y los pronósticos meteorológicos.

Para cambiar el mapa : haga clic en los botones verdes con una cruz de color negro para hacer un zoom, en el botón verde con un guión para alejar o en las flechas verdes para mapas adyacentes.


METAR-TAF: